createdAt,value
2017-01-31T00:00:02.157Z,0
2017-01-31T00:00:42.630Z,0
2017-01-31T00:01:23.126Z,0
2017-01-31T00:02:03.658Z,0
2017-01-31T00:02:44.117Z,0
2017-01-31T00:03:24.605Z,0
2017-01-31T00:04:06.015Z,0
2017-01-31T00:04:46.500Z,0
2017-01-31T00:05:26.977Z,0
2017-01-31T00:06:07.510Z,0
2017-01-31T00:06:48.009Z,0
2017-01-31T00:07:28.496Z,0
2017-01-31T00:08:08.956Z,0
2017-01-31T00:08:49.448Z,0
2017-01-31T00:09:29.953Z,0
2017-01-31T00:10:10.475Z,0
2017-01-31T00:10:50.913Z,0
2017-01-31T00:11:31.404Z,0
2017-01-31T00:12:11.879Z,0
2017-01-31T00:12:52.347Z,0
2017-01-31T00:13:32.814Z,0
2017-01-31T00:14:13.331Z,0
2017-01-31T00:14:53.853Z,0
2017-01-31T00:15:34.308Z,0
2017-01-31T00:16:15.586Z,0
2017-01-31T00:16:56.069Z,0
2017-01-31T00:17:36.561Z,0
2017-01-31T00:18:17.028Z,0
2017-01-31T00:18:57.545Z,0
2017-01-31T00:19:38.067Z,0
2017-01-31T00:20:18.603Z,0
2017-01-31T00:20:59.022Z,0
2017-01-31T00:21:39.558Z,0
2017-01-31T00:22:20.045Z,0
2017-01-31T00:23:00.585Z,0
2017-01-31T00:23:41.125Z,0
2017-01-31T00:24:21.674Z,0
2017-01-31T00:25:02.162Z,0
2017-01-31T00:25:43.241Z,0
2017-01-31T00:26:23.732Z,0
2017-01-31T00:27:04.737Z,0
2017-01-31T00:27:45.243Z,0
2017-01-31T00:28:25.754Z,0
2017-01-31T00:29:06.240Z,0
2017-01-31T00:29:47.567Z,0
2017-01-31T00:30:28.037Z,0
2017-01-31T00:31:08.672Z,0
2017-01-31T00:31:49.208Z,0
2017-01-31T00:32:29.684Z,0
2017-01-31T00:33:10.193Z,0
2017-01-31T00:33:50.661Z,0
2017-01-31T00:34:31.135Z,0
2017-01-31T00:35:12.466Z,0
2017-01-31T00:35:52.969Z,0
2017-01-31T00:36:33.437Z,0
2017-01-31T00:37:13.950Z,0
2017-01-31T00:37:54.447Z,0
2017-01-31T00:38:34.937Z,0
2017-01-31T00:39:15.388Z,0
2017-01-31T00:39:55.877Z,0
2017-01-31T00:40:36.413Z,0
2017-01-31T00:41:16.892Z,0
2017-01-31T00:41:57.402Z,0
2017-01-31T00:42:37.894Z,0
2017-01-31T00:43:18.398Z,0
2017-01-31T00:43:58.857Z,0
2017-01-31T00:44:40.164Z,0
2017-01-31T00:45:23.164Z,0
2017-01-31T00:46:03.691Z,0
2017-01-31T00:46:44.145Z,0
2017-01-31T00:47:24.660Z,0
2017-01-31T00:48:05.135Z,0
2017-01-31T00:48:45.666Z,0
2017-01-31T00:49:26.146Z,0
2017-01-31T00:50:06.649Z,0
2017-01-31T00:50:47.112Z,0
2017-01-31T00:51:27.634Z,0
2017-01-31T00:52:08.120Z,0
2017-01-31T00:52:48.609Z,0
2017-01-31T00:53:29.104Z,0
2017-01-31T00:54:09.616Z,0
2017-01-31T00:54:50.129Z,0
2017-01-31T00:55:30.632Z,0
2017-01-31T00:56:11.131Z,0
2017-01-31T00:56:51.656Z,0
2017-01-31T00:57:32.163Z,0
2017-01-31T00:58:13.178Z,0
2017-01-31T00:58:53.714Z,0
2017-01-31T00:59:34.169Z,0
2017-01-31T01:00:14.677Z,0
2017-01-31T01:00:55.196Z,0
2017-01-31T01:01:35.674Z,0
2017-01-31T01:02:16.178Z,0
2017-01-31T01:02:56.650Z,0
2017-01-31T01:03:37.148Z,0
2017-01-31T01:04:17.671Z,0
2017-01-31T01:04:58.198Z,0
2017-01-31T01:05:38.677Z,0
2017-01-31T01:06:19.178Z,0
2017-01-31T01:06:59.647Z,0
2017-01-31T01:07:40.145Z,0
2017-01-31T01:08:20.648Z,0
2017-01-31T01:09:01.150Z,0
2017-01-31T01:09:42.177Z,0
2017-01-31T01:10:22.612Z,0
2017-01-31T01:11:03.123Z,0
2017-01-31T01:11:43.602Z,0
2017-01-31T01:12:24.129Z,0
2017-01-31T01:13:04.590Z,0
2017-01-31T01:13:45.128Z,0
2017-01-31T01:14:25.620Z,0
2017-01-31T01:15:07.062Z,0
2017-01-31T01:15:47.570Z,0
2017-01-31T01:16:28.065Z,0
2017-01-31T01:17:08.709Z,0
2017-01-31T01:17:49.242Z,0
2017-01-31T01:18:29.718Z,0
2017-01-31T01:19:10.211Z,0
2017-01-31T01:19:50.685Z,0
2017-01-31T01:20:31.207Z,0
2017-01-31T01:21:11.703Z,0
2017-01-31T01:21:52.684Z,0
2017-01-31T01:22:33.199Z,0
2017-01-31T01:23:13.669Z,0
2017-01-31T01:23:54.136Z,0
2017-01-31T01:24:34.639Z,0
2017-01-31T01:25:15.108Z,0
2017-01-31T01:25:55.620Z,0
2017-01-31T01:26:36.089Z,0
2017-01-31T01:27:17.498Z,0
2017-01-31T01:27:58.023Z,0
2017-01-31T01:28:38.526Z,0
2017-01-31T01:29:19.050Z,0
2017-01-31T01:29:59.538Z,0
2017-01-31T01:30:40.027Z,0
2017-01-31T01:31:20.531Z,0
2017-01-31T01:32:01.010Z,0
2017-01-31T01:32:41.506Z,0
2017-01-31T01:33:22.009Z,0
2017-01-31T01:34:02.517Z,0
2017-01-31T01:34:43.015Z,0
2017-01-31T01:35:23.564Z,0
2017-01-31T01:36:04.076Z,0
2017-01-31T01:36:44.573Z,0
2017-01-31T01:37:25.088Z,0
2017-01-31T01:38:05.587Z,0
2017-01-31T01:38:46.085Z,0
2017-01-31T01:39:27.239Z,0
2017-01-31T01:40:07.753Z,0
2017-01-31T01:40:48.234Z,0
2017-01-31T01:41:28.730Z,0
2017-01-31T01:42:10.075Z,0
2017-01-31T01:42:50.568Z,0
2017-01-31T01:43:31.085Z,0
2017-01-31T01:44:11.582Z,0
2017-01-31T01:44:52.037Z,0
2017-01-31T01:45:32.521Z,0
2017-01-31T01:46:13.047Z,0
2017-01-31T01:46:53.526Z,0
2017-01-31T01:47:33.994Z,0
2017-01-31T01:48:14.503Z,0
2017-01-31T01:48:54.966Z,0
2017-01-31T01:49:35.466Z,0
2017-01-31T01:50:15.979Z,0
2017-01-31T01:50:56.450Z,0
2017-01-31T01:51:36.930Z,0
2017-01-31T01:52:17.428Z,0
2017-01-31T01:52:57.907Z,0
2017-01-31T01:53:38.403Z,0
2017-01-31T01:54:18.903Z,0
2017-01-31T01:54:59.400Z,0
2017-01-31T01:57:33.334Z,0
2017-01-31T01:58:14.428Z,0
2017-01-31T01:58:54.892Z,0
2017-01-31T01:59:35.393Z,0
2017-01-31T02:00:15.904Z,0
2017-01-31T02:00:56.375Z,0
2017-01-31T02:01:36.884Z,0
2017-01-31T02:02:17.368Z,0
2017-01-31T02:02:57.870Z,0
2017-01-31T02:03:38.338Z,0
2017-01-31T02:04:18.849Z,0
2017-01-31T02:04:59.374Z,0
2017-01-31T02:05:39.830Z,0
2017-01-31T02:06:20.319Z,0
2017-01-31T02:07:00.830Z,0
2017-01-31T02:07:41.334Z,0
2017-01-31T02:08:21.812Z,0
2017-01-31T02:09:02.295Z,0
2017-01-31T02:09:42.795Z,0
2017-01-31T02:10:23.285Z,0
2017-01-31T02:11:03.840Z,0
2017-01-31T02:11:44.324Z,0
2017-01-31T02:12:25.503Z,0
2017-01-31T02:13:05.974Z,0
2017-01-31T02:15:36.365Z,0
2017-01-31T02:16:16.855Z,0
2017-01-31T02:16:57.327Z,0
2017-01-31T02:17:37.829Z,0
2017-01-31T02:18:18.315Z,0
2017-01-31T02:18:58.799Z,0
2017-01-31T02:19:39.294Z,0
2017-01-31T02:20:19.753Z,0
2017-01-31T02:21:00.241Z,0
2017-01-31T02:21:40.767Z,0
2017-01-31T02:22:21.206Z,0
2017-01-31T02:23:02.482Z,0
2017-01-31T02:23:42.977Z,0
2017-01-31T02:24:23.466Z,0
2017-01-31T02:25:03.962Z,0
2017-01-31T02:25:44.481Z,0
2017-01-31T02:26:24.951Z,0
2017-01-31T02:27:05.464Z,0
2017-01-31T02:27:46.006Z,0
2017-01-31T02:28:26.510Z,0
2017-01-31T02:29:07.011Z,0
2017-01-31T02:29:47.506Z,0
2017-01-31T02:30:28.038Z,0
2017-01-31T02:31:08.567Z,0
2017-01-31T02:31:49.674Z,0
2017-01-31T02:32:30.191Z,0
2017-01-31T02:33:10.662Z,0
2017-01-31T02:33:51.201Z,0
2017-01-31T02:34:31.685Z,0
2017-01-31T02:35:12.193Z,0
2017-01-31T02:35:52.724Z,0
2017-01-31T02:36:33.218Z,0
2017-01-31T02:37:13.716Z,0
2017-01-31T02:37:54.723Z,0
2017-01-31T02:38:35.230Z,0
2017-01-31T02:39:16.392Z,0
2017-01-31T02:39:56.878Z,0
2017-01-31T02:40:37.368Z,0
2017-01-31T02:41:18.379Z,0
2017-01-31T02:41:58.901Z,0
2017-01-31T02:42:39.378Z,0
2017-01-31T02:43:19.903Z,0
2017-01-31T02:44:00.365Z,0
2017-01-31T02:44:40.859Z,0
2017-01-31T02:45:21.384Z,0
2017-01-31T02:46:01.933Z,0
2017-01-31T02:46:42.408Z,0
2017-01-31T02:47:22.937Z,0
2017-01-31T02:48:03.411Z,0
2017-01-31T02:48:43.916Z,0
2017-01-31T02:49:24.357Z,0
2017-01-31T02:50:04.849Z,0
2017-01-31T02:50:45.364Z,0
2017-01-31T02:51:25.823Z,0
2017-01-31T02:52:06.332Z,0
2017-01-31T02:52:46.823Z,0
2017-01-31T02:53:27.301Z,0
2017-01-31T02:54:07.817Z,0
2017-01-31T02:54:48.336Z,0
2017-01-31T02:55:28.875Z,0
2017-01-31T02:56:10.182Z,0
2017-01-31T02:56:50.677Z,0
2017-01-31T02:57:31.230Z,0
2017-01-31T02:58:11.694Z,0
2017-01-31T02:58:52.179Z,0
2017-01-31T02:59:33.588Z,0
2017-01-31T03:00:14.962Z,0
2017-01-31T03:00:55.458Z,0
2017-01-31T03:01:35.943Z,0
2017-01-31T03:02:16.436Z,0
2017-01-31T03:02:56.930Z,0
2017-01-31T03:03:38.069Z,0
2017-01-31T03:04:19.173Z,0
2017-01-31T03:04:59.692Z,0
2017-01-31T03:05:40.146Z,0
2017-01-31T03:06:20.634Z,0
2017-01-31T03:07:01.183Z,0
2017-01-31T03:07:41.685Z,0
2017-01-31T03:08:22.163Z,0
2017-01-31T03:09:03.594Z,0
2017-01-31T03:09:44.865Z,0
2017-01-31T03:10:25.349Z,0
2017-01-31T03:11:05.870Z,0
2017-01-31T03:11:46.327Z,0
2017-01-31T03:12:26.813Z,0
2017-01-31T03:13:08.097Z,0
2017-01-31T03:13:48.613Z,0
2017-01-31T03:14:29.102Z,0
2017-01-31T03:15:09.580Z,0
2017-01-31T03:15:50.051Z,0
2017-01-31T03:16:30.533Z,0
2017-01-31T03:17:11.030Z,0
2017-01-31T03:17:51.520Z,0
2017-01-31T03:18:32.025Z,0
2017-01-31T03:19:12.528Z,0
2017-01-31T03:19:53.015Z,0
2017-01-31T03:20:33.514Z,0
2017-01-31T03:21:14.023Z,0
2017-01-31T03:21:54.479Z,0
2017-01-31T03:22:34.966Z,0
2017-01-31T03:23:16.102Z,0
2017-01-31T03:23:57.382Z,0
2017-01-31T03:24:37.891Z,0
2017-01-31T03:25:18.428Z,0
2017-01-31T03:25:58.909Z,0
2017-01-31T03:26:39.427Z,0
2017-01-31T03:27:19.914Z,0
2017-01-31T03:28:00.439Z,0
2017-01-31T03:28:40.895Z,0
2017-01-31T03:29:21.365Z,0
2017-01-31T03:30:03.594Z,0
2017-01-31T03:30:44.073Z,0
2017-01-31T03:31:24.550Z,0
2017-01-31T03:32:05.101Z,0
2017-01-31T03:32:45.622Z,0
2017-01-31T03:33:26.774Z,0
2017-01-31T03:34:07.244Z,0
2017-01-31T03:34:47.715Z,0
2017-01-31T03:35:28.235Z,0
2017-01-31T03:36:08.743Z,0
2017-01-31T03:36:49.235Z,0
2017-01-31T03:37:29.702Z,0
2017-01-31T03:38:10.230Z,0
2017-01-31T03:38:50.657Z,0
2017-01-31T03:39:31.217Z,0
2017-01-31T03:40:11.706Z,0
2017-01-31T03:40:52.160Z,0
2017-01-31T03:41:32.636Z,0
2017-01-31T03:42:13.112Z,0
2017-01-31T03:42:53.619Z,0
2017-01-31T03:43:34.105Z,0
2017-01-31T03:44:14.574Z,0
2017-01-31T03:44:55.067Z,0
2017-01-31T03:45:36.288Z,0
2017-01-31T03:46:16.765Z,0
2017-01-31T03:46:57.283Z,0
2017-01-31T03:47:37.831Z,0
2017-01-31T03:48:18.957Z,0
2017-01-31T03:48:59.441Z,0
2017-01-31T03:49:39.963Z,0
2017-01-31T03:50:20.481Z,0
2017-01-31T03:51:01.004Z,0
2017-01-31T03:51:42.282Z,0
2017-01-31T03:52:23.380Z,0
2017-01-31T03:53:03.876Z,0
2017-01-31T03:53:45.242Z,0
2017-01-31T03:54:25.784Z,0
2017-01-31T03:55:06.265Z,0
2017-01-31T03:55:46.776Z,0
2017-01-31T03:56:27.259Z,0
2017-01-31T03:57:07.762Z,0
2017-01-31T03:57:48.253Z,0
2017-01-31T03:58:28.749Z,0
2017-01-31T03:59:09.213Z,0
2017-01-31T03:59:49.695Z,0
2017-01-31T04:00:30.170Z,0
2017-01-31T04:01:10.738Z,0
2017-01-31T04:01:52.098Z,0
2017-01-31T04:02:32.608Z,0
2017-01-31T04:03:13.095Z,0
2017-01-31T04:03:53.636Z,0
2017-01-31T04:04:34.128Z,0
2017-01-31T04:05:14.613Z,0
2017-01-31T04:05:55.075Z,0
2017-01-31T04:06:35.601Z,0
2017-01-31T04:07:16.165Z,0
2017-01-31T04:07:56.625Z,0
2017-01-31T04:08:37.114Z,0
2017-01-31T04:09:17.591Z,0
2017-01-31T04:09:58.103Z,0
2017-01-31T04:10:38.648Z,0
2017-01-31T04:11:19.162Z,0
2017-01-31T04:11:59.629Z,0
2017-01-31T04:12:40.139Z,0
2017-01-31T04:13:20.708Z,0
2017-01-31T04:14:01.222Z,0
2017-01-31T04:14:42.483Z,0
2017-01-31T04:15:22.975Z,0
2017-01-31T04:16:03.488Z,0
2017-01-31T04:16:44.894Z,0
2017-01-31T04:17:25.352Z,0
2017-01-31T04:18:05.814Z,0
2017-01-31T04:18:47.191Z,0
2017-01-31T04:19:27.711Z,0
2017-01-31T04:20:08.882Z,0
2017-01-31T04:20:49.369Z,0
2017-01-31T04:21:29.911Z,0
2017-01-31T04:22:10.468Z,0
2017-01-31T04:22:50.987Z,0
2017-01-31T04:23:31.466Z,0
2017-01-31T04:24:11.992Z,0
2017-01-31T04:24:52.449Z,0
2017-01-31T04:25:33.676Z,0
2017-01-31T04:28:42.967Z,0
2017-01-31T04:29:23.191Z,0
2017-01-31T04:30:03.677Z,0
2017-01-31T04:30:44.167Z,0
2017-01-31T04:31:24.657Z,0
2017-01-31T04:32:05.155Z,0
2017-01-31T04:32:45.691Z,0
2017-01-31T04:33:26.151Z,0
2017-01-31T04:34:06.693Z,0
2017-01-31T04:34:49.776Z,0
2017-01-31T04:35:31.285Z,0
2017-01-31T04:36:11.788Z,0
2017-01-31T04:36:52.769Z,0
2017-01-31T04:37:33.283Z,0
2017-01-31T04:38:14.619Z,0
2017-01-31T04:38:55.107Z,0
2017-01-31T04:39:35.611Z,0
2017-01-31T04:40:17.090Z,0
2017-01-31T04:40:58.785Z,0
2017-01-31T04:41:39.266Z,0
2017-01-31T04:42:19.821Z,0
2017-01-31T04:43:00.350Z,0
2017-01-31T04:43:40.876Z,0
2017-01-31T04:44:21.388Z,0
2017-01-31T04:45:01.873Z,0
2017-01-31T04:45:42.335Z,0
2017-01-31T04:46:22.864Z,0
2017-01-31T04:47:03.336Z,0
2017-01-31T04:47:43.871Z,0
2017-01-31T04:48:24.350Z,0
2017-01-31T04:49:04.861Z,0
2017-01-31T04:49:45.313Z,0
2017-01-31T04:50:25.853Z,0
2017-01-31T04:51:06.347Z,0
2017-01-31T04:51:46.840Z,0
2017-01-31T04:52:27.335Z,0
2017-01-31T04:53:07.854Z,0
2017-01-31T04:53:49.237Z,0
2017-01-31T04:54:29.722Z,0
2017-01-31T04:55:10.895Z,0
2017-01-31T04:55:51.399Z,0
2017-01-31T04:56:32.773Z,0
2017-01-31T04:57:13.292Z,0
2017-01-31T04:57:54.585Z,0
2017-01-31T04:58:35.087Z,0
2017-01-31T04:59:15.564Z,0
2017-01-31T04:59:56.123Z,0
2017-01-31T05:00:36.583Z,0
2017-01-31T05:01:17.084Z,0
2017-01-31T05:01:57.580Z,0
2017-01-31T05:02:38.157Z,0
2017-01-31T05:03:18.606Z,0
2017-01-31T05:03:59.080Z,0
2017-01-31T05:04:39.568Z,0
2017-01-31T05:05:20.071Z,0
2017-01-31T05:06:00.528Z,0
2017-01-31T05:06:41.052Z,0
2017-01-31T05:07:21.568Z,0
2017-01-31T05:08:02.036Z,0
2017-01-31T05:08:43.087Z,0
2017-01-31T05:09:23.577Z,0
2017-01-31T05:10:04.082Z,0
2017-01-31T05:10:45.385Z,0
2017-01-31T05:11:27.644Z,0
2017-01-31T05:12:22.306Z,0
2017-01-31T05:13:05.381Z,0
2017-01-31T05:13:47.375Z,0
2017-01-31T05:14:31.114Z,0
2017-01-31T05:15:13.320Z,0
2017-01-31T05:17:44.571Z,0
2017-01-31T05:18:27.496Z,0
2017-01-31T05:19:08.490Z,0
2017-01-31T05:19:49.690Z,0
2017-01-31T05:20:30.143Z,0
2017-01-31T05:21:10.679Z,0
2017-01-31T05:21:51.293Z,0
2017-01-31T05:22:31.839Z,0
2017-01-31T05:23:12.298Z,0
2017-01-31T05:25:48.334Z,0
2017-01-31T05:26:28.961Z,0
2017-01-31T05:27:09.493Z,0
2017-01-31T05:27:49.979Z,0
2017-01-31T05:28:30.590Z,0
2017-01-31T05:29:12.790Z,0
2017-01-31T05:29:54.291Z,0
2017-01-31T05:30:35.790Z,0
2017-01-31T05:31:17.115Z,0
2017-01-31T05:31:59.373Z,0
2017-01-31T05:32:40.012Z,0
2017-01-31T05:33:20.525Z,0
2017-01-31T05:34:01.783Z,0
2017-01-31T05:34:42.270Z,0
2017-01-31T05:35:22.791Z,0
2017-01-31T05:36:03.363Z,0
2017-01-31T05:36:44.794Z,0
2017-01-31T05:37:25.296Z,0
2017-01-31T05:38:06.392Z,0
2017-01-31T05:38:46.926Z,0
2017-01-31T05:39:27.560Z,0
2017-01-31T05:40:13.613Z,0
2017-01-31T05:40:54.796Z,0
2017-01-31T05:41:37.177Z,0
2017-01-31T05:42:17.671Z,0
2017-01-31T05:42:58.825Z,0
2017-01-31T05:43:39.334Z,0
2017-01-31T05:44:19.828Z,0
2017-01-31T05:45:00.360Z,0
2017-01-31T05:45:40.943Z,0
2017-01-31T05:46:24.369Z,0
2017-01-31T05:47:04.893Z,0
2017-01-31T05:47:46.214Z,0
2017-01-31T05:48:26.694Z,0
2017-01-31T05:49:07.231Z,0
2017-01-31T05:49:48.799Z,0
2017-01-31T05:50:29.287Z,0
2017-01-31T05:51:11.366Z,0
2017-01-31T05:51:51.946Z,0
2017-01-31T05:52:32.528Z,0
2017-01-31T05:53:13.037Z,0
2017-01-31T05:53:56.291Z,0
2017-01-31T05:54:37.791Z,0
2017-01-31T05:55:18.270Z,0
2017-01-31T05:56:00.283Z,0
2017-01-31T05:56:40.798Z,0
2017-01-31T05:57:22.023Z,0
2017-01-31T05:58:03.401Z,0
2017-01-31T05:58:43.871Z,0
2017-01-31T05:59:24.864Z,0
2017-01-31T06:00:10.972Z,0
2017-01-31T06:00:52.896Z,0
2017-01-31T06:01:33.983Z,0
2017-01-31T06:02:16.784Z,0
2017-01-31T06:04:16.915Z,0
2017-01-31T06:04:58.367Z,0
2017-01-31T06:05:39.707Z,0
2017-01-31T06:06:20.229Z,0
2017-01-31T06:07:01.317Z,0
2017-01-31T06:07:43.406Z,0
2017-01-31T06:08:25.699Z,0
2017-01-31T06:09:06.771Z,0
2017-01-31T06:09:48.895Z,0
2017-01-31T06:10:31.911Z,0
2017-01-31T06:11:12.398Z,0
2017-01-31T06:11:54.467Z,0
2017-01-31T06:12:35.835Z,0
2017-01-31T06:13:17.108Z,0
2017-01-31T06:14:00.890Z,0
2017-01-31T06:14:43.900Z,0
2017-01-31T06:17:13.531Z,0
2017-01-31T06:17:55.633Z,0
2017-01-31T06:18:36.101Z,0
2017-01-31T06:19:16.562Z,0
2017-01-31T06:20:00.819Z,0
2017-01-31T06:20:41.818Z,0
2017-01-31T06:21:23.103Z,0
2017-01-31T06:22:07.297Z,0
2017-01-31T06:22:51.323Z,0
2017-01-31T06:23:34.284Z,0
2017-01-31T06:24:14.790Z,0
2017-01-31T06:24:55.283Z,0
2017-01-31T06:25:36.289Z,0
2017-01-31T06:26:20.308Z,0
2017-01-31T06:27:00.816Z,0
2017-01-31T06:27:42.343Z,0
2017-01-31T06:28:22.807Z,0
2017-01-31T06:29:03.323Z,0
2017-01-31T06:29:44.513Z,0
2017-01-31T06:30:25.009Z,0
2017-01-31T06:31:05.457Z,0
2017-01-31T06:31:49.290Z,0
2017-01-31T06:32:29.765Z,0
2017-01-31T06:33:10.240Z,0
2017-01-31T06:33:51.295Z,0
2017-01-31T06:34:32.909Z,0
2017-01-31T06:35:14.393Z,0
2017-01-31T06:35:57.893Z,0
2017-01-31T06:36:41.806Z,0
2017-01-31T06:37:23.967Z,0
2017-01-31T06:38:06.797Z,0
2017-01-31T06:38:49.827Z,0
2017-01-31T06:39:31.816Z,0
2017-01-31T06:40:13.033Z,0
2017-01-31T06:40:55.871Z,0
2017-01-31T06:41:42.459Z,0
2017-01-31T06:42:22.978Z,0
2017-01-31T06:43:03.498Z,0
2017-01-31T06:43:44.026Z,0
2017-01-31T06:44:27.795Z,0
2017-01-31T06:45:09.404Z,0
2017-01-31T06:45:50.663Z,0
2017-01-31T06:46:31.188Z,0
2017-01-31T06:47:11.770Z,0
2017-01-31T06:47:54.908Z,4
2017-01-31T06:48:38.143Z,0
2017-01-31T06:49:19.524Z,4
2017-01-31T06:50:00.026Z,4
2017-01-31T06:50:42.306Z,0
2017-01-31T06:51:24.814Z,0
2017-01-31T06:52:06.957Z,0
2017-01-31T06:52:47.480Z,4
2017-01-31T06:53:27.965Z,4
2017-01-31T06:54:09.938Z,4
2017-01-31T06:54:51.146Z,4
2017-01-31T06:55:32.369Z,4
2017-01-31T06:56:15.285Z,4
2017-01-31T06:56:58.323Z,4
2017-01-31T06:57:38.808Z,8
2017-01-31T06:58:23.905Z,8
2017-01-31T06:59:05.385Z,8
2017-01-31T06:59:47.609Z,4
2017-01-31T07:00:28.108Z,8
2017-01-31T07:01:11.822Z,8
2017-01-31T07:01:52.313Z,8
2017-01-31T07:02:33.518Z,12
2017-01-31T07:03:14.805Z,12
2017-01-31T07:03:55.310Z,12
2017-01-31T07:04:43.463Z,16
2017-01-31T07:05:23.809Z,16
2017-01-31T07:06:05.325Z,16
2017-01-31T07:06:46.504Z,16
2017-01-31T07:07:27.807Z,20
2017-01-31T07:08:11.128Z,24
2017-01-31T07:08:53.112Z,20
2017-01-31T07:09:33.605Z,24
2017-01-31T07:10:15.644Z,20
2017-01-31T07:10:56.105Z,20
2017-01-31T07:11:43.878Z,24
2017-01-31T07:12:25.808Z,20
2017-01-31T07:13:06.276Z,24
2017-01-31T07:13:47.608Z,28
2017-01-31T07:14:33.337Z,32
2017-01-31T07:15:18.729Z,36
2017-01-31T07:16:01.152Z,36
2017-01-31T07:16:42.402Z,36
2017-01-31T07:17:23.608Z,40
2017-01-31T07:18:06.290Z,40
2017-01-31T07:18:47.428Z,44
2017-01-31T07:19:27.908Z,44
2017-01-31T07:20:09.201Z,52
2017-01-31T07:20:50.299Z,56
2017-01-31T07:21:35.306Z,56
2017-01-31T07:22:15.839Z,60
2017-01-31T07:22:58.129Z,64
2017-01-31T07:23:41.293Z,68
2017-01-31T07:24:21.813Z,76
2017-01-31T07:25:02.378Z,88
2017-01-31T07:25:43.839Z,104
2017-01-31T07:26:24.296Z,104
2017-01-31T07:27:08.317Z,132
2017-01-31T07:27:49.701Z,144
2017-01-31T07:28:30.166Z,176
2017-01-31T07:29:10.667Z,196
2017-01-31T07:29:51.199Z,212
2017-01-31T07:30:31.657Z,260
2017-01-31T07:31:12.685Z,188
2017-01-31T07:31:53.161Z,192
2017-01-31T07:32:33.653Z,168
2017-01-31T07:33:15.795Z,144
2017-01-31T07:33:56.297Z,148
2017-01-31T07:34:38.404Z,160
2017-01-31T07:35:19.805Z,164
2017-01-31T07:36:00.356Z,184
2017-01-31T07:36:40.838Z,180
2017-01-31T07:37:21.358Z,176
2017-01-31T07:38:01.878Z,180
2017-01-31T07:38:42.395Z,212
2017-01-31T07:39:22.946Z,196
2017-01-31T07:40:04.815Z,224
2017-01-31T07:40:46.201Z,196
2017-01-31T07:41:28.381Z,208
2017-01-31T07:42:08.907Z,220
2017-01-31T07:42:49.355Z,232
2017-01-31T07:43:29.899Z,236
2017-01-31T07:44:11.907Z,232
2017-01-31T07:44:53.877Z,224
2017-01-31T07:45:34.536Z,240
2017-01-31T07:46:18.308Z,252
2017-01-31T07:46:59.411Z,252
2017-01-31T07:47:43.626Z,272
2017-01-31T07:48:25.785Z,284
2017-01-31T07:49:07.807Z,280
2017-01-31T07:49:51.798Z,248
2017-01-31T07:50:35.222Z,296
2017-01-31T07:51:15.758Z,280
2017-01-31T07:51:57.029Z,292
2017-01-31T07:52:37.526Z,300
2017-01-31T07:53:18.033Z,324
2017-01-31T07:54:01.217Z,296
2017-01-31T07:54:42.895Z,256
2017-01-31T07:55:25.013Z,236
2017-01-31T07:56:05.522Z,264
2017-01-31T07:56:47.023Z,280
2017-01-31T07:57:29.063Z,300
2017-01-31T07:58:10.558Z,320
2017-01-31T07:58:51.630Z,304
2017-01-31T07:59:32.191Z,284
2017-01-31T08:00:13.722Z,352
2017-01-31T08:00:54.211Z,352
2017-01-31T08:01:34.706Z,392
2017-01-31T08:02:15.214Z,408
2017-01-31T08:02:55.749Z,328
2017-01-31T08:03:36.219Z,272
2017-01-31T08:04:17.378Z,284
2017-01-31T08:04:57.902Z,588
2017-01-31T08:05:38.418Z,764
2017-01-31T08:06:18.949Z,944
2017-01-31T08:07:00.307Z,1136
2017-01-31T08:07:42.287Z,1208
2017-01-31T08:08:22.816Z,1064
2017-01-31T08:09:03.337Z,1064
2017-01-31T08:09:43.837Z,1200
2017-01-31T08:10:24.394Z,1112
2017-01-31T08:11:04.837Z,1128
2017-01-31T08:11:46.325Z,1200
2017-01-31T08:12:26.781Z,1128
2017-01-31T08:13:07.267Z,1208
2017-01-31T08:13:48.421Z,1356
2017-01-31T08:14:28.947Z,1240
2017-01-31T08:15:09.440Z,1196
2017-01-31T08:15:49.910Z,1192
2017-01-31T08:16:30.445Z,1256
2017-01-31T08:17:10.925Z,1404
2017-01-31T08:17:51.450Z,1464
2017-01-31T08:18:31.957Z,1460
2017-01-31T08:19:12.512Z,1456
2017-01-31T08:19:52.980Z,1432
2017-01-31T08:20:33.520Z,1500
2017-01-31T08:21:14.081Z,1696
2017-01-31T08:21:55.553Z,1800
2017-01-31T08:22:36.783Z,1840
2017-01-31T08:23:17.287Z,1940
2017-01-31T08:23:58.778Z,2028
2017-01-31T08:24:39.336Z,2112
2017-01-31T08:25:20.714Z,2156
2017-01-31T08:26:01.261Z,2092
2017-01-31T08:26:41.853Z,2236
2017-01-31T08:27:24.155Z,2248
2017-01-31T08:28:07.107Z,2236
2017-01-31T08:28:47.766Z,2268
2017-01-31T08:29:29.827Z,2220
2017-01-31T08:30:10.812Z,2132
2017-01-31T08:30:51.342Z,1844
2017-01-31T08:31:31.891Z,1596
2017-01-31T08:32:12.399Z,1620
2017-01-31T08:32:52.876Z,1568
2017-01-31T08:33:35.590Z,1668
2017-01-31T08:34:17.163Z,1840
2017-01-31T08:34:59.736Z,2116
2017-01-31T08:35:45.405Z,2292
2017-01-31T08:36:33.521Z,2376
2017-01-31T08:37:16.974Z,2312
2017-01-31T08:40:14.898Z,2632
2017-01-31T08:41:12.927Z,2460
2017-01-31T08:41:55.060Z,2320
2017-01-31T08:47:06.361Z,2300
2017-01-31T08:47:51.676Z,2180
2017-01-31T08:48:35.777Z,2168
2017-01-31T08:49:22.252Z,2024
2017-01-31T08:50:07.045Z,1912
2017-01-31T08:50:49.262Z,1844
2017-01-31T08:51:33.363Z,1988
2017-01-31T08:52:24.906Z,2084
2017-01-31T08:54:54.627Z,1792
2017-01-31T08:55:44.560Z,1828
2017-01-31T08:56:29.828Z,1676
2017-01-31T08:57:16.968Z,1732
2017-01-31T08:57:58.452Z,1856
2017-01-31T08:58:38.922Z,1632
2017-01-31T08:59:19.425Z,1492
2017-01-31T08:59:59.921Z,1544
2017-01-31T09:00:45.215Z,1656
2017-01-31T09:01:35.836Z,1684
2017-01-31T09:02:21.172Z,1668
2017-01-31T09:03:03.959Z,1732
2017-01-31T09:03:44.513Z,1588
2017-01-31T09:04:24.970Z,1648
2017-01-31T09:05:05.510Z,1552
2017-01-31T09:05:46.015Z,1648
2017-01-31T09:06:26.555Z,1596
2017-01-31T09:07:07.023Z,1488
2017-01-31T09:07:47.493Z,1580
2017-01-31T09:08:28.014Z,1556
2017-01-31T09:09:08.483Z,1544
2017-01-31T09:09:48.976Z,1532
2017-01-31T09:10:30.366Z,1404
2017-01-31T09:11:16.070Z,1556
2017-01-31T09:12:02.095Z,1708
2017-01-31T09:12:47.201Z,1712
2017-01-31T09:13:39.254Z,1460
2017-01-31T09:14:23.315Z,1420
2017-01-31T09:15:06.438Z,1312
2017-01-31T09:15:48.994Z,1224
2017-01-31T09:16:32.345Z,1120
2017-01-31T09:17:19.562Z,1020
2017-01-31T09:18:03.938Z,848
2017-01-31T09:18:45.447Z,832
2017-01-31T09:19:33.342Z,884
2017-01-31T09:20:16.503Z,1064
2017-01-31T09:20:59.775Z,1240
2017-01-31T09:21:43.873Z,1692
2017-01-31T09:22:26.321Z,1796
2017-01-31T09:23:08.583Z,1620
2017-01-31T09:23:49.206Z,1548
2017-01-31T09:24:32.332Z,1404
2017-01-31T09:25:16.351Z,1580
2017-01-31T09:25:56.901Z,1580
2017-01-31T09:26:39.539Z,1612
2017-01-31T09:27:21.591Z,1388
2017-01-31T09:28:04.861Z,1448
2017-01-31T09:28:45.389Z,1400
2017-01-31T09:31:16.699Z,1496
2017-01-31T09:31:58.430Z,1436
2017-01-31T09:32:39.984Z,1360
2017-01-31T09:33:25.305Z,1384
2017-01-31T09:34:06.559Z,1416
2017-01-31T09:34:48.904Z,1448
2017-01-31T09:35:33.639Z,1448
2017-01-31T09:36:14.202Z,1416
2017-01-31T09:36:55.397Z,1376
2017-01-31T09:37:36.842Z,1416
2017-01-31T09:38:18.977Z,1540
2017-01-31T09:38:58.939Z,1428
2017-01-31T09:39:39.508Z,1532
2017-01-31T09:40:20.987Z,1676
2017-01-31T09:41:01.576Z,1776
2017-01-31T09:41:43.154Z,1816
2017-01-31T09:42:26.404Z,1752
2017-01-31T09:43:10.797Z,1520
2017-01-31T09:43:53.677Z,1276
2017-01-31T09:44:34.300Z,1656
2017-01-31T09:45:14.862Z,1652
2017-01-31T09:45:55.642Z,1764
2017-01-31T09:46:36.257Z,1680
2017-01-31T09:47:16.825Z,1544
2017-01-31T09:47:57.551Z,1520
2017-01-31T09:48:38.268Z,1440
2017-01-31T09:49:20.445Z,1380
2017-01-31T09:50:01.866Z,1504
2017-01-31T09:50:43.201Z,1676
2017-01-31T09:51:24.356Z,1776
2017-01-31T09:52:05.936Z,1668
2017-01-31T09:52:48.294Z,1676
2017-01-31T09:53:28.823Z,1480
2017-01-31T09:54:09.338Z,1460
2017-01-31T09:54:49.865Z,1416
2017-01-31T09:55:32.683Z,1600
2017-01-31T09:56:13.175Z,1736
2017-01-31T09:56:55.671Z,1588
2017-01-31T09:57:37.096Z,1608
2017-01-31T09:58:18.692Z,1580
2017-01-31T09:58:59.304Z,1528
2017-01-31T09:59:39.844Z,1588
2017-01-31T10:00:24.056Z,1552
2017-01-31T10:01:08.302Z,1584
2017-01-31T10:01:52.640Z,1704
2017-01-31T10:02:34.388Z,1728
2017-01-31T10:03:16.056Z,1516
2017-01-31T10:03:57.525Z,1536
2017-01-31T10:04:38.032Z,1660
2017-01-31T10:05:18.581Z,1640
2017-01-31T10:05:59.156Z,1704
2017-01-31T10:06:39.693Z,1680
2017-01-31T10:07:20.236Z,1460
2017-01-31T10:08:01.211Z,1536
2017-01-31T10:08:44.111Z,1684
2017-01-31T10:09:25.760Z,1428
2017-01-31T10:10:07.385Z,1344
2017-01-31T10:10:47.950Z,1476
2017-01-31T10:11:30.410Z,1476
2017-01-31T10:12:12.141Z,1552
2017-01-31T10:12:54.345Z,1648
2017-01-31T10:15:14.291Z,1728
2017-01-31T10:15:57.898Z,1656
2017-01-31T10:16:40.270Z,1760
2017-01-31T10:17:25.736Z,1640